createdAt,value
2019-04-26T00:00:44.157Z,95148.92
2019-04-26T00:03:16.239Z,95138.34
2019-04-26T00:05:45.771Z,95144.41
2019-04-26T00:08:15.837Z,95154.91
2019-04-26T00:10:54.934Z,95150.05
2019-04-26T00:16:39.250Z,95139.25
2019-04-26T00:19:09.412Z,95141.34
2019-04-26T00:21:39.239Z,95140.09
2019-04-26T00:24:08.810Z,95142.05
2019-04-26T00:26:38.312Z,95136.17
2019-04-26T00:29:07.678Z,95133.33
2019-04-26T00:31:37.069Z,95133.50
2019-04-26T00:34:06.459Z,95132.80
2019-04-26T00:36:35.838Z,95135.23
2019-04-26T00:39:06.642Z,95128.55
2019-04-26T00:41:37.191Z,95124.83
2019-04-26T00:44:06.572Z,95127.44
2019-04-26T00:46:38.055Z,95132.66
2019-04-26T00:49:10.654Z,95127.30
2019-04-26T00:51:41.227Z,95119.52
2019-04-26T00:54:11.931Z,95119.86
2019-04-26T00:56:41.382Z,95118.59
2019-04-26T00:59:12.042Z,95125.67
2019-04-26T01:01:45.819Z,95124.88
2019-04-26T01:04:16.030Z,95123.17
2019-04-26T01:06:48.111Z,95125.77
2019-04-26T01:09:17.500Z,95131.79
2019-04-26T01:11:46.888Z,95130.02
2019-04-26T01:14:16.558Z,95123.75
2019-04-26T01:16:47.783Z,95125.67
2019-04-26T01:19:19.085Z,95122.27
2019-04-26T01:21:52.859Z,95117.00
2019-04-26T01:24:25.398Z,95113.89
2019-04-26T01:26:56.811Z,95114.03
2019-04-26T01:29:28.011Z,95123.67
2019-04-26T01:32:04.456Z,95120.27
2019-04-26T01:37:22.530Z,95114.25
2019-04-26T01:39:57.471Z,95107.91
2019-04-26T01:42:42.464Z,95106.75
2019-04-26T01:45:20.220Z,95105.78
2019-04-26T01:47:52.627Z,95107.30
2019-04-26T01:50:25.255Z,95100.59
2019-04-26T01:52:55.885Z,95101.16
2019-04-26T01:55:29.185Z,95101.70
2019-04-26T01:58:00.694Z,95098.22
2019-04-26T02:00:49.292Z,95101.01
2019-04-26T02:03:25.649Z,95103.14
2019-04-26T02:05:55.500Z,95103.22
2019-04-26T02:08:26.172Z,95097.03
2019-04-26T02:10:55.872Z,95102.83
2019-04-26T02:13:25.550Z,95103.77
2019-04-26T02:15:55.108Z,95105.08
2019-04-26T02:18:25.504Z,95106.27
2019-04-26T02:21:26.518Z,95104.93
2019-04-26T02:24:15.406Z,95095.98
2019-04-26T02:26:47.685Z,95097.71
2019-04-26T02:29:22.748Z,95090.75
2019-04-26T02:31:54.668Z,95087.14
2019-04-26T02:34:25.887Z,95085.69
2019-04-26T02:37:00.554Z,95085.51
2019-04-26T02:39:35.929Z,95086.66
2019-04-26T02:42:08.846Z,95087.70
2019-04-26T02:44:47.933Z,95093.48
2019-04-26T02:48:01.726Z,95088.23
2019-04-26T02:50:45.460Z,95085.00
2019-04-26T02:53:31.649Z,95078.34
2019-04-26T02:56:37.734Z,95083.73
2019-04-26T02:59:43.333Z,95083.48
2019-04-26T03:02:25.514Z,95090.64
2019-04-26T03:05:02.373Z,95084.47
2019-04-26T03:08:02.658Z,95084.47
2019-04-26T03:10:40.266Z,95083.52
2019-04-26T03:13:19.012Z,95088.88
2019-04-26T03:16:02.464Z,95090.84
2019-04-26T03:18:48.812Z,95090.80
2019-04-26T03:21:26.314Z,95085.77
2019-04-26T03:24:07.385Z,95090.32
2019-04-26T03:27:08.567Z,95098.68
2019-04-26T03:30:18.939Z,95099.51
2019-04-26T03:32:55.237Z,95109.75
2019-04-26T03:35:48.521Z,95104.88
2019-04-26T03:38:21.266Z,95105.38
2019-04-26T03:41:12.143Z,95113.84
2019-04-26T03:44:06.670Z,95114.84
2019-04-26T03:46:49.936Z,95125.58
2019-04-26T03:49:45.667Z,95117.61
2019-04-26T03:52:43.539Z,95118.58
2019-04-26T03:56:06.417Z,95120.23
2019-04-26T03:59:02.611Z,95120.87
2019-04-26T04:01:39.566Z,95124.13
2019-04-26T04:04:28.939Z,95126.58
2019-04-26T04:07:04.557Z,95128.84
2019-04-26T04:09:38.066Z,95126.56
2019-04-26T04:12:23.800Z,95128.53
2019-04-26T04:15:06.789Z,95133.08
2019-04-26T04:17:50.402Z,95134.38
2019-04-26T04:21:22.583Z,95130.14
2019-04-26T04:24:08.086Z,95129.47
2019-04-26T04:27:30.806Z,95127.05
2019-04-26T04:30:33.013Z,95135.99
2019-04-26T04:33:15.290Z,95143.13
2019-04-26T04:35:52.996Z,95134.00
2019-04-26T04:38:42.170Z,95134.95
2019-04-26T04:41:33.717Z,95134.62
2019-04-26T04:45:01.883Z,95140.49
2019-04-26T04:47:41.232Z,95145.66
2019-04-26T04:50:22.510Z,95146.75
2019-04-26T04:53:25.897Z,95141.70
2019-04-26T04:56:35.003Z,95141.67
2019-04-26T04:59:15.271Z,95141.80
2019-04-26T05:02:23.406Z,95146.78
2019-04-26T05:05:34.538Z,95144.30
2019-04-26T05:08:18.406Z,95143.41
2019-04-26T05:10:56.631Z,95144.67
2019-04-26T05:13:40.701Z,95149.50
2019-04-26T05:16:52.587Z,95145.59
2019-04-26T05:19:44.214Z,95145.33
2019-04-26T05:22:55.703Z,95147.72
2019-04-26T05:26:41.868Z,95151.67
2019-04-26T05:30:11.411Z,95149.12
2019-04-26T05:33:16.680Z,95146.88
2019-04-26T05:36:15.152Z,95148.19
2019-04-26T05:38:53.677Z,95147.71
2019-04-26T05:42:00.897Z,95150.45
2019-04-26T05:45:19.899Z,95154.91
2019-04-26T05:48:08.355Z,95162.19
2019-04-26T05:51:15.415Z,95155.59
2019-04-26T05:54:33.703Z,95153.56
2019-04-26T05:57:14.528Z,95152.98
2019-04-26T06:00:38.183Z,95154.44
2019-04-26T06:03:42.719Z,95148.36
2019-04-26T06:06:31.745Z,95149.87
2019-04-26T06:10:03.602Z,95149.21
2019-04-26T06:13:35.230Z,95147.17
2019-04-26T06:16:30.902Z,95152.24
2019-04-26T06:19:17.688Z,95145.86
2019-04-26T06:22:07.309Z,95141.96
2019-04-26T06:25:21.551Z,95147.33
2019-04-26T06:28:31.310Z,95140.77
2019-04-26T06:31:48.700Z,95140.77
2019-04-26T06:34:30.537Z,95141.97
2019-04-26T06:37:25.242Z,95139.83
2019-04-26T06:40:09.893Z,95137.66
2019-04-26T06:43:34.892Z,95137.38
2019-04-26T06:47:06.598Z,95137.38
2019-04-26T06:50:29.765Z,95133.64
2019-04-26T06:53:49.024Z,95127.52
2019-04-26T06:56:38.118Z,95126.70
2019-04-26T06:59:22.574Z,95122.70
2019-04-26T07:02:06.132Z,95118.00
2019-04-26T07:05:15.190Z,95120.38
2019-04-26T07:08:28.399Z,95116.36
2019-04-26T07:11:39.622Z,95114.23
2019-04-26T07:15:03.912Z,95112.05
2019-04-26T07:18:06.389Z,95108.17
2019-04-26T07:20:51.367Z,95105.34
2019-04-26T07:23:51.334Z,95111.77
2019-04-26T07:27:13.124Z,95104.41
2019-04-26T07:30:23.009Z,95103.41
2019-04-26T07:33:52.005Z,95100.49
2019-04-26T07:37:06.991Z,95098.65
2019-04-26T07:40:27.743Z,95089.57
2019-04-26T07:43:51.912Z,95089.98
2019-04-26T07:46:48.237Z,95089.47
2019-04-26T07:49:53.283Z,95085.09
2019-04-26T07:53:09.271Z,95081.77
2019-04-26T07:55:58.119Z,95081.51
2019-04-26T07:59:07.229Z,95084.13
2019-04-26T08:02:18.745Z,95078.62
2019-04-26T08:04:57.817Z,95088.98
2019-04-26T08:07:30.773Z,95089.94
2019-04-26T08:10:16.124Z,95088.80
2019-04-26T08:12:54.004Z,95084.55
2019-04-26T08:15:44.917Z,95079.39
2019-04-26T08:18:29.295Z,95081.53
2019-04-26T08:21:27.019Z,95080.20
2019-04-26T08:24:07.916Z,95078.62
2019-04-26T08:26:40.414Z,95082.45
2019-04-26T08:29:12.715Z,95075.15
2019-04-26T08:31:44.665Z,95077.86
2019-04-26T08:34:21.148Z,95079.10
2019-04-26T08:37:01.786Z,95072.64
2019-04-26T08:39:44.948Z,95072.64
2019-04-26T08:42:11.854Z,95074.29
2019-04-26T08:44:53.020Z,95073.69
2019-04-26T08:47:38.218Z,95074.36
2019-04-26T08:50:20.371Z,95067.03
2019-04-26T08:52:57.817Z,95072.75
2019-04-26T08:55:30.420Z,95063.13
2019-04-26T08:58:02.722Z,95062.83
2019-04-26T09:00:57.133Z,95062.91
2019-04-26T09:03:49.018Z,95066.34
2019-04-26T09:06:39.566Z,95056.36
2019-04-26T09:09:18.217Z,95049.23
2019-04-26T09:11:59.504Z,95048.53
2019-04-26T09:14:24.128Z,95042.53
2019-04-26T09:16:53.529Z,95044.59
2019-04-26T09:19:26.274Z,95038.16
2019-04-26T09:22:13.094Z,95040.61
2019-04-26T09:25:08.998Z,95028.88
2019-04-26T09:27:58.824Z,95022.34
2019-04-26T09:30:52.317Z,95024.42
2019-04-26T09:33:27.605Z,95017.72
2019-04-26T09:35:57.077Z,95009.47
2019-04-26T09:38:26.942Z,95002.36
2019-04-26T09:40:57.294Z,95004.61
2019-04-26T09:43:39.902Z,94998.38
2019-04-26T09:46:22.583Z,94997.73
2019-04-26T09:49:14.115Z,94986.98
2019-04-26T09:51:43.559Z,94990.28
2019-04-26T09:54:15.330Z,94980.44
2019-04-26T09:56:44.151Z,94980.72
2019-04-26T09:59:13.942Z,94977.91
2019-04-26T10:01:43.495Z,94968.45
2019-04-26T10:04:12.867Z,94965.67
2019-04-26T10:06:42.338Z,94956.75
2019-04-26T10:09:17.325Z,94960.94
2019-04-26T10:11:51.530Z,94948.11
2019-04-26T10:14:39.344Z,94952.88
2019-04-26T10:17:27.989Z,94942.77
2019-04-26T10:19:58.145Z,94943.40
2019-04-26T10:22:32.103Z,94942.45
2019-04-26T10:25:02.468Z,94938.19
2019-04-26T10:27:36.083Z,94936.62
2019-04-26T10:30:09.048Z,94932.85
2019-04-26T10:32:35.481Z,94927.14
2019-04-26T10:35:04.819Z,94922.03
2019-04-26T10:37:39.693Z,94918.35
2019-04-26T10:40:06.259Z,94917.88
2019-04-26T10:42:35.618Z,94901.22
2019-04-26T10:45:10.454Z,94904.48
2019-04-26T10:47:38.605Z,94903.59
2019-04-26T10:50:11.089Z,94897.53
2019-04-26T10:53:02.046Z,94900.95
2019-04-26T10:56:05.418Z,94903.58
2019-04-26T10:58:39.295Z,94902.45
2019-04-26T11:01:12.664Z,94893.37
2019-04-26T11:03:42.100Z,94895.52
2019-04-26T11:06:11.595Z,94893.73
2019-04-26T11:08:40.995Z,94888.52
2019-04-26T11:11:10.732Z,94889.31
2019-04-26T11:13:40.118Z,94890.16
2019-04-26T11:16:09.585Z,94876.14
2019-04-26T11:18:38.991Z,94882.72
2019-04-26T11:21:08.359Z,94883.55
2019-04-26T11:23:41.185Z,94875.77
2019-04-26T11:26:09.904Z,94878.22
2019-04-26T11:28:41.938Z,94871.97
2019-04-26T11:31:10.814Z,94871.53
2019-04-26T11:33:45.143Z,94874.06
2019-04-26T11:36:11.286Z,94875.52
2019-04-26T11:38:40.661Z,94873.61
2019-04-26T11:41:10.089Z,94865.69
2019-04-26T11:43:39.437Z,94862.76
2019-04-26T11:46:08.804Z,94867.38
2019-04-26T11:48:38.195Z,94856.09
2019-04-26T11:51:07.559Z,94856.67
2019-04-26T11:53:40.469Z,94858.91
2019-04-26T11:56:08.041Z,94857.31
2019-04-26T11:58:37.464Z,94847.41
2019-04-26T12:01:08.446Z,94848.30
2019-04-26T12:03:39.438Z,94843.18
2019-04-26T12:06:17.944Z,94842.74
2019-04-26T12:08:54.116Z,94832.38
2019-04-26T12:11:31.580Z,94838.34
2019-04-26T12:13:55.451Z,94843.09
2019-04-26T12:16:25.730Z,94837.32
2019-04-26T12:18:55.133Z,94833.41
2019-04-26T12:21:24.555Z,94829.69
2019-04-26T12:23:55.494Z,94819.95
2019-04-26T12:26:25.056Z,94814.90
2019-04-26T12:28:54.409Z,94810.33
2019-04-26T12:31:23.767Z,94803.37
2019-04-26T12:33:53.170Z,94810.45
2019-04-26T12:36:22.672Z,94802.17
2019-04-26T12:38:52.029Z,94799.20
2019-04-26T12:41:39.196Z,94797.42
2019-04-26T12:43:54.504Z,94788.92
2019-04-26T12:46:32.012Z,94792.11
2019-04-26T12:49:01.450Z,94782.17
2019-04-26T12:51:30.862Z,94777.48
2019-04-26T12:54:03.880Z,94780.78
2019-04-26T12:56:32.744Z,94779.67
2019-04-26T12:59:02.292Z,94770.79
2019-04-26T13:01:31.688Z,94768.02
2019-04-26T13:04:05.496Z,94775.19
2019-04-26T13:06:37.613Z,94769.20
2019-04-26T13:09:13.813Z,94760.88
2019-04-26T13:12:09.805Z,94762.66
2019-04-26T13:14:52.367Z,94762.28
2019-04-26T13:17:24.634Z,94760.51
2019-04-26T13:19:55.440Z,94755.72
2019-04-26T13:22:24.963Z,94754.48
2019-04-26T13:24:54.820Z,94752.23
2019-04-26T13:27:24.215Z,94745.66
2019-04-26T13:30:01.874Z,94753.49
2019-04-26T13:32:24.806Z,94746.62
2019-04-26T13:34:54.160Z,94738.14
2019-04-26T13:37:23.578Z,94739.31
2019-04-26T13:39:55.328Z,94740.13
2019-04-26T13:42:24.017Z,94733.66
2019-04-26T13:45:05.855Z,94733.05
2019-04-26T13:47:49.057Z,94731.95
2019-04-26T13:50:37.707Z,94725.06
2019-04-26T13:53:08.420Z,94725.64
2019-04-26T13:55:38.809Z,94723.28
2019-04-26T13:58:08.227Z,94721.30
2019-04-26T14:00:39.768Z,94720.93
2019-04-26T14:03:08.997Z,94720.23
2019-04-26T14:05:38.444Z,94718.36
2019-04-26T14:08:07.877Z,94713.31
2019-04-26T14:10:37.231Z,94711.17
2019-04-26T14:13:06.594Z,94713.95
2019-04-26T14:15:39.382Z,94709.69
2019-04-26T14:18:07.173Z,94707.55
2019-04-26T14:20:36.617Z,94708.59
2019-04-26T14:23:28.120Z,94708.16
2019-04-26T14:26:16.396Z,94709.80
2019-04-26T14:28:45.785Z,94706.44
2019-04-26T14:31:16.445Z,94703.28
2019-04-26T14:33:46.273Z,94701.03
2019-04-26T14:36:17.905Z,94710.78
2019-04-26T14:38:46.761Z,94703.94
2019-04-26T14:41:21.994Z,94703.77
2019-04-26T14:43:47.403Z,94704.73
2019-04-26T14:46:16.813Z,94704.37
2019-04-26T14:49:00.569Z,94701.38
2019-04-26T14:51:18.676Z,94699.59
2019-04-26T14:53:48.323Z,94691.66
2019-04-26T14:56:17.653Z,94688.13
2019-04-26T14:58:47.032Z,94686.41
2019-04-26T15:01:32.257Z,94693.78
2019-04-26T15:04:18.181Z,94688.92
2019-04-26T15:06:51.920Z,94687.23
2019-04-26T15:09:20.184Z,94686.98
2019-04-26T15:11:54.133Z,94684.30
2019-04-26T15:14:22.702Z,94684.31
2019-04-26T15:16:52.169Z,94682.64
2019-04-26T15:19:22.551Z,94679.58
2019-04-26T15:21:52.417Z,94675.65
2019-04-26T15:24:22.629Z,94682.13
2019-04-26T15:26:52.078Z,94681.01
2019-04-26T15:29:26.901Z,94681.42
2019-04-26T15:31:53.641Z,94675.80
2019-04-26T15:34:26.508Z,94674.86
2019-04-26T15:36:54.827Z,94678.89
2019-04-26T15:39:44.525Z,94682.81
2019-04-26T15:42:31.895Z,94680.08
2019-04-26T15:45:14.014Z,94678.53
2019-04-26T15:48:02.286Z,94675.22
2019-04-26T15:50:52.016Z,94668.47
2019-04-26T15:53:22.126Z,94665.45
2019-04-26T15:55:52.494Z,94671.70
2019-04-26T15:58:22.277Z,94668.82
2019-04-26T16:00:52.848Z,94671.09
2019-04-26T16:03:22.722Z,94667.40
2019-04-26T16:05:52.173Z,94668.61
2019-04-26T16:08:22.885Z,94663.01
2019-04-26T16:10:53.171Z,94658.37
2019-04-26T16:13:24.159Z,94663.48
2019-04-26T16:15:53.628Z,94658.38
2019-04-26T16:18:23.114Z,94661.23
2019-04-26T16:20:53.389Z,94652.27
2019-04-26T16:23:24.273Z,94656.38
2019-04-26T16:25:53.822Z,94651.86
2019-04-26T16:28:51.528Z,94648.92
2019-04-26T16:31:42.194Z,94650.27
2019-04-26T16:34:14.256Z,94647.08
2019-04-26T16:36:45.316Z,94644.61
2019-04-26T16:39:15.567Z,94648.60
2019-04-26T16:41:45.069Z,94650.46
2019-04-26T16:44:14.456Z,94642.23
2019-04-26T16:46:44.070Z,94649.34
2019-04-26T16:49:14.640Z,94644.02
2019-04-26T16:51:44.156Z,94641.11
2019-04-26T16:54:21.326Z,94645.83
2019-04-26T16:56:44.716Z,94645.47
2019-04-26T16:59:28.743Z,94646.50
2019-04-26T17:01:47.414Z,94648.40
2019-04-26T17:04:20.007Z,94642.52
2019-04-26T17:06:47.523Z,94645.47
2019-04-26T17:09:16.938Z,94642.79
2019-04-26T17:11:46.351Z,94643.77
2019-04-26T17:14:15.730Z,94641.42
2019-04-26T17:16:45.125Z,94645.38
2019-04-26T17:19:19.923Z,94653.33
2019-04-26T17:22:06.859Z,94649.52
2019-04-26T17:24:58.179Z,94658.19
2019-04-26T17:27:27.581Z,94646.88
2019-04-26T17:29:56.938Z,94658.17
2019-04-26T17:32:26.309Z,94663.42
2019-04-26T17:34:59.612Z,94665.24
2019-04-26T17:37:27.943Z,94661.56
2019-04-26T17:39:57.627Z,94669.78
2019-04-26T17:42:29.805Z,94663.83
2019-04-26T17:45:04.003Z,94669.28
2019-04-26T17:47:34.692Z,94667.08
2019-04-26T17:50:04.561Z,94665.05
2019-04-26T17:52:36.063Z,94676.48
2019-04-26T17:55:03.083Z,94685.41
2019-04-26T17:57:36.730Z,94691.68
2019-04-26T18:00:07.438Z,94687.71
2019-04-26T18:02:42.242Z,94691.11
2019-04-26T18:05:10.847Z,94691.05
2019-04-26T18:07:44.303Z,94697.48
2019-04-26T18:10:11.375Z,94692.05
2019-04-26T18:12:41.318Z,94699.70
2019-04-26T18:15:14.360Z,94705.66
2019-04-26T18:18:14.409Z,94703.93
2019-04-26T18:21:00.557Z,94706.45
2019-04-26T18:23:30.517Z,94711.88
2019-04-26T18:25:59.993Z,94715.52
2019-04-26T18:28:29.349Z,94723.61
2019-04-26T18:30:59.236Z,94725.05
2019-04-26T18:33:30.054Z,94725.41
2019-04-26T18:35:59.438Z,94727.17
2019-04-26T18:38:31.938Z,94733.25
2019-04-26T18:41:01.656Z,94738.39
2019-04-26T18:43:32.805Z,94741.82
2019-04-26T18:46:17.050Z,94740.74
2019-04-26T18:48:46.903Z,94735.66
2019-04-26T18:51:16.307Z,94740.45
2019-04-26T18:54:17.812Z,94735.31
2019-04-26T18:56:50.398Z,94743.00
2019-04-26T18:59:23.371Z,94740.25
2019-04-26T19:01:53.810Z,94739.72
2019-04-26T19:04:23.770Z,94742.84
2019-04-26T19:06:53.201Z,94741.18
2019-04-26T19:09:27.364Z,94745.88
2019-04-26T19:11:57.509Z,94742.40
2019-04-26T19:15:03.297Z,94751.98
2019-04-26T19:17:54.502Z,94749.61
2019-04-26T19:20:39.192Z,94749.39
2019-04-26T19:23:09.830Z,94754.36
2019-04-26T19:25:41.203Z,94757.22
2019-04-26T19:28:11.980Z,94750.31
2019-04-26T19:30:47.307Z,94751.72
2019-04-26T19:33:16.743Z,94750.78
2019-04-26T19:35:47.209Z,94750.95
2019-04-26T19:38:15.007Z,94750.84
2019-04-26T19:40:47.806Z,94747.67
2019-04-26T19:43:28.098Z,94753.90
2019-04-26T19:46:01.455Z,94753.79
2019-04-26T19:48:55.331Z,94755.31
2019-04-26T19:51:41.478Z,94757.84
2019-04-26T19:54:27.672Z,94745.56
2019-04-26T19:57:02.442Z,94744.54
2019-04-26T19:59:33.177Z,94742.92
2019-04-26T20:02:01.558Z,94739.35
2019-04-26T20:04:34.050Z,94736.89
2019-04-26T20:07:02.212Z,94735.22
2019-04-26T20:09:31.945Z,94737.50
2019-04-26T20:12:02.563Z,94726.17
2019-04-26T20:14:44.754Z,94730.86
2019-04-26T20:17:03.282Z,94732.23
2019-04-26T20:19:37.273Z,94726.83
2019-04-26T20:22:04.004Z,94726.89
2019-04-26T20:24:33.347Z,94728.83
2019-04-26T20:27:03.484Z,94728.38
2019-04-26T20:29:33.093Z,94729.84
2019-04-26T20:32:32.015Z,94734.25
2019-04-26T20:35:28.393Z,94736.77
2019-04-26T20:38:01.077Z,94738.25
2019-04-26T20:40:29.229Z,94733.21
2019-04-26T20:43:03.398Z,94737.82
2019-04-26T20:45:41.113Z,94731.47
2019-04-26T20:48:02.329Z,94732.58
2019-04-26T20:50:35.205Z,94736.17
2019-04-26T20:53:03.395Z,94737.13
2019-04-26T20:55:34.577Z,94740.52
2019-04-26T20:58:08.306Z,94736.92
2019-04-26T21:00:36.528Z,94737.08
2019-04-26T21:03:20.160Z,94743.98
2019-04-26T21:05:46.332Z,94740.72
2019-04-26T21:08:08.954Z,94743.21
2019-04-26T21:10:38.410Z,94743.07
2019-04-26T21:13:12.226Z,94745.55
2019-04-26T21:15:53.513Z,94747.09
2019-04-26T21:18:12.896Z,94745.63
2019-04-26T21:20:42.620Z,94744.89
2019-04-26T21:23:13.251Z,94746.73
2019-04-26T21:25:55.490Z,94743.20
2019-04-26T21:28:42.972Z,94744.38
2019-04-26T21:31:32.187Z,94753.73
2019-04-26T21:34:10.330Z,94749.20
2019-04-26T21:36:55.205Z,94752.69
2019-04-26T21:39:50.490Z,94751.86
2019-04-26T21:42:25.637Z,94741.41
2019-04-26T21:44:55.032Z,94743.89
2019-04-26T21:47:27.483Z,94742.00
2019-04-26T21:50:01.257Z,94742.86
2019-04-26T21:52:30.685Z,94741.40
2019-04-26T21:55:00.025Z,94739.21
2019-04-26T21:57:31.742Z,94739.85
2019-04-26T22:00:00.520Z,94740.80
2019-04-26T22:02:36.071Z,94739.05
2019-04-26T22:05:03.175Z,94744.59
2019-04-26T22:07:32.838Z,94738.30
2019-04-26T22:10:10.816Z,94748.22
2019-04-26T22:12:40.229Z,94749.34
2019-04-26T22:15:37.528Z,94751.31
2019-04-26T22:18:16.477Z,94749.70
2019-04-26T22:21:09.887Z,94746.77
2019-04-26T22:23:57.254Z,94749.70
2019-04-26T22:26:26.719Z,94742.80
2019-04-26T22:28:56.083Z,94739.84
2019-04-26T22:31:25.442Z,94744.36
2019-04-26T22:33:56.114Z,94741.81
2019-04-26T22:36:27.417Z,94743.09
2019-04-26T22:39:01.684Z,94736.23
2019-04-26T22:41:28.494Z,94733.00
2019-04-26T22:44:06.726Z,94734.83
2019-04-26T22:46:49.467Z,94739.12
2019-04-26T22:49:17.797Z,94736.98
2019-04-26T22:51:47.172Z,94729.84
2019-04-26T22:54:16.596Z,94728.31
2019-04-26T22:56:46.134Z,94730.34
2019-04-26T22:59:15.468Z,94729.20
2019-04-26T23:01:48.784Z,94728.13
2019-04-26T23:04:24.960Z,94730.80
2019-04-26T23:06:48.182Z,94725.63
2019-04-26T23:09:20.583Z,94719.06
2019-04-26T23:11:54.043Z,94718.80
2019-04-26T23:14:48.286Z,94722.88
2019-04-26T23:17:35.250Z,94718.63
2019-04-26T23:20:15.248Z,94719.03
2019-04-26T23:22:45.001Z,94708.04
2019-04-26T23:25:14.590Z,94709.88
2019-04-26T23:27:43.993Z,94705.25
2019-04-26T23:30:14.548Z,94707.60
2019-04-26T23:32:43.901Z,94705.25
2019-04-26T23:35:13.795Z,94707.17
2019-04-26T23:37:43.200Z,94706.56
2019-04-26T23:40:12.591Z,94704.45
2019-04-26T23:42:43.538Z,94699.34
2019-04-26T23:45:14.405Z,94699.20
2019-04-26T23:47:43.901Z,94699.08
2019-04-26T23:50:14.100Z,94691.50
2019-04-26T23:52:43.758Z,94696.23
2019-04-26T23:55:16.443Z,94690.80
2019-04-26T23:57:45.936Z,94686.16
